Time;durP1;ratioP1;P1;durP2;ratioP2;P2;SDS_P1;SDS_P2;PMS_P1;PMS_P2;Temp;Humidity;BMP_temperature;BMP_pressure;BME280_temperature;BME280_humidity;BME280_pressure;Samples;Min_cycle;Max_cycle;Signal;HPM_P1;HPM_P2
2023/09/21 00:01:17;;;;;;;4.25;2.33;;;;;;;19.53;60.10;99925.31;5066327;27;20141;-66
2023/09/21 00:03:47;;;;;;;4.10;1.92;;;;;;;19.52;59.97;99918.25;5108494;27;20068;-66
2023/09/21 00:06:17;;;;;;;3.10;1.70;;;;;;;19.46;59.97;99910.16;5079255;27;20071;-65
2023/09/21 00:08:47;;;;;;;3.15;1.73;;;;;;;19.50;60.15;99918.53;5085927;27;22635;-65
2023/09/21 00:11:15;;;;;;;2.85;1.67;;;;;;;19.49;60.17;99920.44;5069495;27;20498;-65
2023/09/21 00:13:43;;;;;;;3.83;2.05;;;;;;;19.48;60.20;99918.03;5079372;27;20041;-65
2023/09/21 00:16:14;;;;;;;4.43;1.70;;;;;;;19.47;60.07;99906.31;5092130;27;20045;-65
2023/09/21 00:18:43;;;;;;;5.00;2.00;;;;;;;19.47;60.10;99906.31;5075167;27;20053;-65
2023/09/21 00:21:13;;;;;;;4.20;1.90;;;;;;;19.47;60.14;99902.78;5095712;27;20046;-65
2023/09/21 00:23:41;;;;;;;4.28;1.85;;;;;;;19.46;60.22;99893.81;5073902;27;20045;-65
2023/09/21 00:26:10;;;;;;;4.68;1.75;;;;;;;19.45;60.30;99891.38;5102659;27;20125;-65
2023/09/21 00:28:37;;;;;;;3.08;1.60;;;;;;;19.43;60.15;99888.16;5077685;27;20045;-65
2023/09/21 00:31:05;;;;;;;3.00;2.03;;;;;;;19.42;60.21;99892.78;5096664;27;20056;-65
2023/09/21 00:33:34;;;;;;;5.00;2.13;;;;;;;19.42;60.06;99883.81;5065979;27;20049;-65
2023/09/21 00:36:04;;;;;;;4.68;1.70;;;;;;;19.41;60.18;99874.81;5068710;27;20096;-66
2023/09/21 00:38:33;;;;;;;3.45;1.80;;;;;;;19.41;60.12;99874.03;5076878;27;20051;-66
2023/09/21 00:41:04;;;;;;;3.05;1.60;;;;;;;19.41;60.05;99871.28;5092402;27;20049;-65
2023/09/21 00:43:32;;;;;;;3.33;1.67;;;;;;;19.40;60.08;99872.41;5070868;27;20107;-65
2023/09/21 00:46:03;;;;;;;2.65;1.60;;;;;;;19.39;59.86;99860.69;5069692;27;20045;-65
2023/09/21 00:48:38;;;;;;;3.33;1.70;;;;;;;19.39;59.86;99860.69;5074899;27;20045;-65
2023/09/21 00:51:11;;;;;;;2.60;1.70;;;;;;;19.39;59.67;99854.44;5061171;27;20045;-65
2023/09/21 00:53:44;;;;;;;3.45;1.52;;;;;;;19.38;59.62;99856.38;5080375;27;20078;-65
2023/09/21 00:56:17;;;;;;;3.65;1.67;;;;;;;19.36;59.53;99842.25;5061843;27;20328;-65
2023/09/21 00:58:48;;;;;;;3.25;1.65;;;;;;;19.30;59.67;99829.84;5064423;27;20496;-65
2023/09/21 01:01:27;;;;;;;3.92;1.85;;;;;;;19.37;59.54;99838.41;5071595;27;20109;-65
2023/09/21 01:03:59;;;;;;;5.93;2.05;;;;;;;19.38;59.46;99836.47;5076615;27;20037;-65
2023/09/21 01:06:30;;;;;;;2.38;1.52;;;;;;;19.37;59.38;99845.78;5087869;27;20481;-65
2023/09/21 01:08:59;;;;;;;4.50;2.00;;;;;;;19.37;59.39;99837.59;5102500;27;20049;-66
2023/09/21 01:11:30;;;;;;;2.92;1.60;;;;;;;19.36;59.46;99833.25;5098551;27;20045;-65
2023/09/21 01:13:57;;;;;;;2.85;1.60;;;;;;;19.37;59.38;99827.50;5060119;27;20047;-65
2023/09/21 01:16:25;;;;;;;3.25;1.60;;;;;;;19.36;59.45;99835.97;5065926;27;20046;-65
2023/09/21 01:18:53;;;;;;;4.00;1.77;;;;;;;19.36;59.45;99823.16;5074209;27;20548;-65
2023/09/21 01:21:34;;;;;;;2.53;1.33;;;;;;;19.35;59.38;99826.19;5067421;27;20042;-65
2023/09/21 01:24:05;;;;;;;2.20;1.60;;;;;;;19.35;59.23;99805.19;5067095;27;20056;-65
2023/09/21 01:26:33;;;;;;;4.85;1.63;;;;;;;19.35;59.16;99815.28;5070049;27;20118;-65
2023/09/21 01:29:01;;;;;;;2.33;1.35;;;;;;;19.34;59.32;99813.69;5113663;27;20050;-65
2023/09/21 01:31:29;;;;;;;4.15;1.48;;;;;;;19.34;59.21;99810.97;5066479;27;20057;-65
2023/09/21 01:33:59;;;;;;;3.13;1.60;;;;;;;19.34;59.19;99810.97;5071301;27;20058;-65
2023/09/21 01:36:28;;;;;;;2.72;1.63;;;;;;;19.34;59.20;99802.78;5059363;27;20056;-65
2023/09/21 01:38:56;;;;;;;3.55;1.55;;;;;;;19.32;59.13;99784.00;5066292;27;20056;-65
2023/09/21 01:41:25;;;;;;;4.22;2.30;;;;;;;19.34;59.07;99789.97;5074034;27;20051;-65
2023/09/21 01:43:53;;;;;;;3.47;1.33;;;;;;;19.33;59.27;99793.81;5079630;27;20041;-65
2023/09/21 01:46:22;;;;;;;1.95;1.45;;;;;;;19.33;59.12;99790.28;5061839;27;20049;-66
2023/09/21 01:48:51;;;;;;;4.35;1.80;;;;;;;19.31;59.24;99787.84;5093638;27;20063;-65
2023/09/21 01:51:20;;;;;;;2.80;1.83;;;;;;;19.32;59.18;99783.22;5082249;27;20072;-66
2023/09/21 01:53:48;;;;;;;4.95;1.85;;;;;;;19.31;59.07;99779.69;5088392;27;20080;-66
2023/09/21 01:56:16;;;;;;;2.33;1.52;;;;;;;19.32;59.10;99777.75;5060031;27;20045;-66
2023/09/21 01:58:46;;;;;;;1.88;1.23;;;;;;;19.32;59.00;99780.47;5061869;27;20693;-66
2023/09/21 02:01:16;;;;;;;2.63;1.90;;;;;;;19.31;59.01;99774.22;5058685;27;20117;-66
2023/09/21 02:03:45;;;;;;;2.40;1.50;;;;;;;19.32;58.97;99775.03;5063518;27;20117;-66
2023/09/21 02:06:13;;;;;;;2.17;1.55;;;;;;;19.30;59.13;99769.91;5056082;27;20061;-66
2023/09/21 02:08:41;;;;;;;2.20;1.45;;;;;;;19.29;58.93;99773.72;5057167;27;20053;-66
2023/09/21 02:11:10;;;;;;;3.53;1.67;;;;;;;19.29;59.07;99768.28;5071716;27;20076;-66
2023/09/21 02:13:38;;;;;;;2.30;1.40;;;;;;;19.29;58.92;99768.28;5074199;27;20045;-66
2023/09/21 02:16:07;;;;;;;3.03;1.50;;;;;;;19.29;58.97;99768.28;5057960;27;20056;-66
2023/09/21 02:18:35;;;;;;;2.70;1.42;;;;;;;19.27;59.24;99762.34;5066844;27;20386;-66
2023/09/21 02:21:08;;;;;;;4.78;1.90;;;;;;;19.28;58.97;99763.13;5062587;27;20057;-66
2023/09/21 02:23:38;;;;;;;3.40;1.67;;;;;;;19.27;59.10;99756.06;5061666;27;20045;-66
2023/09/21 02:26:07;;;;;;;4.68;1.70;;;;;;;19.26;59.14;99754.47;5065332;27;20045;-66
2023/09/21 02:28:34;;;;;;;2.38;1.60;;;;;;;19.25;59.26;99756.38;5064920;27;20053;-66
2023/09/21 02:31:06;;;;;;;2.80;1.60;;;;;;;19.24;59.30;99749.31;5060886;27;20053;-66
2023/09/21 02:33:38;;;;;;;3.05;1.52;;;;;;;19.24;59.14;99751.25;5064271;27;20076;-66
2023/09/21 02:36:13;;;;;;;1.98;1.40;;;;;;;19.23;59.26;99755.88;5063527;27;20039;-65
2023/09/21 02:38:41;;;;;;;2.42;1.33;;;;;;;19.22;59.22;99748.81;5062966;27;20052;-65
2023/09/21 02:41:09;;;;;;;2.83;1.63;;;;;;;19.18;59.15;99745.91;5069734;27;20061;-65
2023/09/21 02:43:39;;;;;;;2.33;1.60;;;;;;;19.21;59.09;99747.22;5066351;27;20052;-66
2023/09/21 02:46:06;;;;;;;2.55;1.33;;;;;;;19.21;59.22;99754.56;5062097;27;20056;-65
2023/09/21 02:48:36;;;;;;;2.15;1.23;;;;;;;19.21;59.36;99749.13;5078587;27;20045;-65
2023/09/21 02:51:04;;;;;;;7.35;2.15;;;;;;;19.20;59.11;99742.88;5080102;27;20042;-65
2023/09/21 02:53:32;;;;;;;3.45;1.67;;;;;;;19.15;59.33;99732.09;5069634;27;20052;-65
2023/09/21 02:56:02;;;;;;;2.83;1.60;;;;;;;19.18;59.11;99740.47;5086858;27;20043;-65
2023/09/21 02:58:30;;;;;;;1.35;1.15;;;;;;;19.18;59.24;99736.94;5065081;27;20060;-65
2023/09/21 03:00:58;;;;;;;4.95;1.52;;;;;;;19.14;59.26;99730.47;5064355;27;20045;-65
2023/09/21 03:03:27;;;;;;;1.80;1.35;;;;;;;19.17;59.24;99735.31;5063978;27;20101;-65
2023/09/21 03:05:58;;;;;;;2.15;1.42;;;;;;;19.16;59.08;99728.25;5066410;27;20056;-65
2023/09/21 03:08:26;;;;;;;2.95;1.50;;;;;;;19.16;59.23;99729.06;5071159;27;20052;-65
2023/09/21 03:10:55;;;;;;;2.13;1.30;;;;;;;19.12;59.25;99717.16;5065324;27;20118;-65
2023/09/21 03:13:23;;;;;;;2.38;1.48;;;;;;;19.15;59.02;99715.75;5068701;27;20439;-65
2023/09/21 03:15:53;;;;;;;1.73;1.25;;;;;;;19.16;59.32;99722.81;5068339;27;20056;-65
2023/09/21 03:18:23;;;;;;;3.17;1.45;;;;;;;19.15;59.16;99719.28;5071711;27;20751;-65
2023/09/21 03:20:54;;;;;;;2.00;1.52;;;;;;;19.15;59.18;99718.47;5074630;27;20098;-65
2023/09/21 03:23:23;;;;;;;1.92;1.42;;;;;;;19.15;59.21;99721.19;5058088;27;20045;-65
2023/09/21 03:25:53;;;;;;;2.15;1.40;;;;;;;19.12;59.20;99711.72;5069398;27;20041;-64
2023/09/21 03:28:23;;;;;;;2.67;1.73;;;;;;;19.10;59.12;99707.69;5108112;27;20086;-65
2023/09/21 03:30:52;;;;;;;3.30;1.60;;;;;;;19.14;59.22;99711.41;5064076;27;20413;-65
2023/09/21 03:33:21;;;;;;;3.50;1.50;;;;;;;19.14;59.30;99714.94;5089085;27;20051;-65
2023/09/21 03:35:52;;;;;;;3.13;1.45;;;;;;;19.13;59.20;99718.78;5082139;27;20474;-65
2023/09/21 03:38:20;;;;;;;3.17;1.70;;;;;;;19.13;59.21;99712.53;5089711;27;20043;-65
2023/09/21 03:40:50;;;;;;;3.50;1.45;;;;;;;19.13;59.15;99718.78;5090619;27;20048;-65
2023/09/21 03:43:21;;;;;;;3.65;1.77;;;;;;;19.13;59.15;99717.97;5079106;27;20052;-65
2023/09/21 03:45:49;;;;;;;3.25;1.52;;;;;;;19.14;59.30;99714.13;5073308;27;20082;-65
2023/09/21 03:48:18;;;;;;;3.38;1.63;;;;;;;19.14;59.43;99705.97;5069726;27;20051;-65
2023/09/21 03:50:47;;;;;;;2.90;1.40;;;;;;;19.10;59.29;99685.91;5079592;27;20059;-65
2023/09/21 03:53:15;;;;;;;2.05;1.35;;;;;;;19.09;59.39;99690.53;5082987;27;20091;-65
2023/09/21 03:55:46;;;;;;;3.63;1.77;;;;;;;19.13;59.30;99701.63;5066740;27;20045;-65
2023/09/21 03:58:16;;;;;;;2.00;1.50;;;;;;;19.11;59.35;99698.41;5124802;27;20102;-65
2023/09/21 04:00:46;;;;;;;3.03;1.48;;;;;;;19.10;59.39;99692.16;5076911;27;20049;-65
2023/09/21 04:03:16;;;;;;;1.98;1.55;;;;;;;19.12;59.32;99689.13;5070883;27;20054;-65
2023/09/21 04:05:44;;;;;;;4.03;1.75;;;;;;;19.10;59.45;99673.09;5072306;27;20040;-65
2023/09/21 04:08:12;;;;;;;3.20;1.80;;;;;;;19.12;59.20;99683.69;5062135;27;20052;-65
2023/09/21 04:10:40;;;;;;;3.45;1.45;;;;;;;19.12;59.22;99680.94;5064917;27;20054;-65
2023/09/21 04:13:08;;;;;;;3.75;1.85;;;;;;;19.12;59.31;99689.13;5061372;27;20075;-65
2023/09/21 04:15:37;;;;;;;2.97;1.45;;;;;;;19.12;59.29;99679.03;5088089;27;20047;-65
2023/09/21 04:18:08;;;;;;;3.90;1.60;;;;;;;19.11;59.32;99685.59;5062947;27;20596;-65
2023/09/21 04:20:40;;;;;;;5.78;2.25;;;;;;;18.96;59.34;99658.72;5058788;27;20059;-66
2023/09/21 04:23:08;;;;;;;3.15;1.45;;;;;;;19.11;59.47;99688.31;5059352;27;20045;-65
2023/09/21 04:25:36;;;;;;;3.80;1.88;;;;;;;19.10;59.30;99692.16;5083173;27;20109;-65
2023/09/21 04:28:05;;;;;;;3.97;2.08;;;;;;;19.10;59.36;99696.78;5078377;27;20049;-65
2023/09/21 04:30:34;;;;;;;2.10;1.50;;;;;;;19.10;59.49;99688.63;5068900;27;20157;-65
2023/09/21 04:33:04;;;;;;;3.25;1.55;;;;;;;19.08;59.60;99690.84;5057447;27;20053;-65
2023/09/21 04:35:32;;;;;;;2.42;1.60;;;;;;;19.09;59.53;99687.00;5060271;27;20093;-65
2023/09/21 04:38:00;;;;;;;3.95;1.67;;;;;;;19.07;59.47;99678.34;5060518;27;20045;-65
2023/09/21 04:40:28;;;;;;;3.83;1.30;;;;;;;19.07;59.61;99675.63;5063756;27;20056;-65
2023/09/21 04:42:56;;;;;;;4.25;1.80;;;;;;;19.05;59.71;99686.03;5093389;27;20078;-65
2023/09/21 04:45:26;;;;;;;4.22;1.63;;;;;;;19.06;59.75;99674.03;5057822;27;20864;-65
2023/09/21 04:48:00;;;;;;;3.20;1.85;;;;;;;19.06;59.87;99674.84;5088831;27;20045;-66
2023/09/21 04:50:30;;;;;;;2.38;1.48;;;;;;;19.08;59.93;99678.03;5064495;27;20075;-65
2023/09/21 04:52:59;;;;;;;4.38;1.50;;;;;;;19.12;59.93;99678.22;5064357;27;21360;-65
2023/09/21 04:55:27;;;;;;;2.45;1.35;;;;;;;19.12;59.96;99679.03;5061629;27;20047;-66
2023/09/21 04:57:55;;;;;;;3.88;1.58;;;;;;;19.12;59.81;99670.88;5060362;27;20173;-65
2023/09/21 05:00:22;;;;;;;3.00;1.50;;;;;;;19.08;59.68;99667.13;5063741;27;20057;-64
2023/09/21 05:02:50;;;;;;;2.65;1.50;;;;;;;19.10;59.92;99681.25;5062426;27;20068;-66
2023/09/21 05:05:18;;;;;;;3.78;2.13;;;;;;;19.09;59.97;99690.53;5064099;27;20492;-65
2023/09/21 05:07:48;;;;;;;2.63;1.60;;;;;;;19.10;59.92;99680.44;5081435;27;20043;-66
2023/09/21 05:10:16;;;;;;;2.58;1.50;;;;;;;19.11;59.96;99669.25;5077878;27;20056;-66
2023/09/21 05:12:46;;;;;;;3.30;1.48;;;;;;;19.10;60.09;99666.84;5073255;27;20076;-66
2023/09/21 05:15:15;;;;;;;5.45;1.73;;;;;;;19.16;60.60;99671.06;5056668;27;20068;-66
2023/09/21 05:17:43;;;;;;;4.85;1.88;;;;;;;19.23;60.96;99660.53;5072157;27;20052;-64
2023/09/21 05:20:12;;;;;;;3.55;1.67;;;;;;;19.30;61.46;99658.19;5079784;27;20048;-66
2023/09/21 05:22:40;;;;;;;3.63;2.15;;;;;;;19.38;59.71;99665.63;5073821;27;20045;-66
2023/09/21 05:25:11;;;;;;;3.05;1.63;;;;;;;19.28;60.01;99660.41;5107291;27;20043;-65
2023/09/21 05:27:41;;;;;;;4.68;2.03;;;;;;;19.22;60.16;99663.56;5067651;27;20041;-66
2023/09/21 05:30:09;;;;;;;6.32;1.58;;;;;;;19.22;60.63;99666.28;4734329;27;9999801;-65
2023/09/21 05:32:38;;;;;;;2.85;1.50;;;;;;;19.21;60.43;99667.41;5064628;27;20053;-67
2023/09/21 05:35:10;;;;;;;5.55;1.73;;;;;;;19.16;61.01;99644.63;5059740;27;20053;-67
2023/09/21 05:37:38;;;;;;;3.58;1.55;;;;;;;19.22;60.85;99656.19;5067019;27;20052;-68
2023/09/21 05:40:11;;;;;;;3.30;1.42;;;;;;;19.38;60.55;99653.94;5065566;27;20084;-67
2023/09/21 05:42:41;;;;;;;3.00;1.58;;;;;;;19.31;61.14;99657.06;5070603;27;20053;-66
2023/09/21 05:45:09;;;;;;;2.10;1.30;;;;;;;19.27;60.54;99652.56;5065137;27;20042;-66
2023/09/21 05:47:38;;;;;;;1.88;1.50;;;;;;;19.45;61.42;99654.31;5061196;27;20053;-67
2023/09/21 05:50:08;;;;;;;6.75;2.33;;;;;;;19.40;61.88;99646.25;5055565;27;20045;-70
2023/09/21 05:52:35;;;;;;;8.05;1.80;;;;;;;19.56;61.05;99647.50;5063497;27;20053;-70
2023/09/21 05:55:04;;;;;;;4.45;1.50;;;;;;;19.69;60.70;99649.38;5058871;27;20106;-70
2023/09/21 05:57:32;;;;;;;3.55;1.60;;;;;;;19.75;61.08;99650.03;5092243;27;20068;-70
2023/09/21 06:00:01;;;;;;;4.00;1.92;;;;;;;20.17;61.77;99650.56;5079791;27;20117;-70
2023/09/21 06:02:29;;;;;;;5.70;2.17;;;;;;;19.95;60.13;99635.06;5063732;27;20133;-70
2023/09/21 06:04:57;;;;;;;3.10;1.52;;;;;;;19.63;60.44;99658.78;5076427;27;20052;-70
2023/09/21 06:07:26;;;;;;;4.45;1.80;;;;;;;19.47;61.13;99661.06;5082976;27;20041;-69
2023/09/21 06:09:54;;;;;;;4.70;1.92;;;;;;;19.37;61.47;99646.88;5058096;27;20494;-68
2023/09/21 06:12:24;;;;;;;3.45;1.80;;;;;;;19.31;61.42;99650.81;5059921;28;20101;-68
2023/09/21 06:14:53;;;;;;;2.55;1.63;;;;;;;19.27;61.54;99652.56;5059648;28;20574;-68
2023/09/21 06:17:23;;;;;;;3.08;1.70;;;;;;;19.23;61.46;99655.09;5055633;27;20041;-68
2023/09/21 06:19:53;;;;;;;3.95;1.67;;;;;;;19.23;61.70;99654.28;5060395;27;20083;-68
2023/09/21 06:22:21;;;;;;;5.75;1.77;;;;;;;19.22;61.47;99663.56;5062878;27;20052;-68
2023/09/21 06:24:48;;;;;;;3.95;1.90;;;;;;;19.19;61.59;99670.44;5059755;28;20064;-68
2023/09/21 06:27:18;;;;;;;3.42;2.00;;;;;;;19.18;61.62;99664.19;5060199;28;20061;-68
2023/09/21 06:29:46;;;;;;;2.85;1.75;;;;;;;19.18;61.68;99672.34;5059856;28;20049;-68
2023/09/21 06:32:14;;;;;;;2.80;1.80;;;;;;;19.17;61.70;99667.22;5055549;27;20108;-68
2023/09/21 06:34:45;;;;;;;3.65;1.80;;;;;;;19.18;61.71;99674.28;5059666;27;20039;-68
2023/09/21 06:37:13;;;;;;;3.13;1.70;;;;;;;19.13;61.72;99669.75;5058891;28;20101;-68
2023/09/21 06:39:41;;;;;;;3.42;1.80;;;;;;;19.13;61.73;99667.03;5055108;28;20049;-68
2023/09/21 06:42:09;;;;;;;2.42;1.58;;;;;;;19.14;61.93;99670.56;5059400;28;20053;-68
2023/09/21 06:44:37;;;;;;;3.45;1.67;;;;;;;19.12;61.88;99670.88;5056104;27;20057;-68
2023/09/21 06:47:05;;;;;;;3.83;2.15;;;;;;;19.12;61.96;99676.31;5055307;27;20082;-68
2023/09/21 06:49:35;;;;;;;5.90;1.70;;;;;;;19.12;61.94;99675.50;5058618;28;20053;-67
2023/09/21 06:52:05;;;;;;;4.68;1.85;;;;;;;19.11;62.00;99680.16;5059468;27;20312;-68
2023/09/21 06:54:33;;;;;;;3.17;1.73;;;;;;;19.11;62.10;99682.88;5057428;27;20101;-67
2023/09/21 06:57:04;;;;;;;3.78;2.40;;;;;;;19.11;62.07;99688.31;5060044;27;20082;-68
2023/09/21 06:59:36;;;;;;;4.03;1.58;;;;;;;19.11;62.09;99680.16;5060555;28;20048;-70
2023/09/21 07:02:04;;;;;;;2.63;1.85;;;;;;;19.10;62.46;99686.72;5058551;28;20049;-68
2023/09/21 07:04:33;;;;;;;4.80;2.45;;;;;;;19.10;62.34;99683.97;5063574;28;20053;-69
2023/09/21 07:07:05;;;;;;;4.05;2.10;;;;;;;19.09;62.42;99678.84;5065501;27;20067;-68
2023/09/21 07:09:35;;;;;;;5.38;2.20;;;;;;;19.08;62.44;99679.94;5065790;28;20078;-69
2023/09/21 07:12:04;;;;;;;1.67;1.27;;;;;;;19.09;62.37;99678.84;5062153;27;20049;-71
2023/09/21 07:14:35;;;;;;;5.97;1.90;;;;;;;19.07;62.44;99670.97;5062777;28;20102;-70
2023/09/21 07:17:05;;;;;;;4.32;1.88;;;;;;;19.06;62.57;99665.88;5064685;28;20098;-69
2023/09/21 07:19:34;;;;;;;3.00;1.77;;;;;;;19.04;62.50;99671.63;5061613;27;20068;-68
2023/09/21 07:22:03;;;;;;;3.17;1.90;;;;;;;19.05;62.45;99677.88;5063336;28;20076;-68
2023/09/21 07:24:31;;;;;;;4.72;1.92;;;;;;;19.04;62.61;99679.78;5062655;28;20076;-66
2023/09/21 07:27:01;;;;;;;3.38;1.65;;;;;;;19.05;62.34;99680.59;5060512;28;20119;-68
2023/09/21 07:29:30;;;;;;;5.53;2.17;;;;;;;19.04;62.45;99677.06;5070238;27;20048;-68
2023/09/21 07:32:00;;;;;;;3.30;2.10;;;;;;;19.04;62.36;99679.78;5062057;28;20056;-68
2023/09/21 07:34:29;;;;;;;6.65;2.53;;;;;;;19.06;62.39;99674.84;5065136;27;20053;-70
2023/09/21 07:36:57;;;;;;;4.78;1.85;;;;;;;19.07;62.51;99681.06;5061823;28;20085;-70
2023/09/21 07:39:25;;;;;;;2.75;1.80;;;;;;;19.03;62.51;99678.19;5063329;27;20055;-68
2023/09/21 07:41:53;;;;;;;3.92;1.95;;;;;;;19.06;62.45;99674.03;5064256;27;20083;-66
2023/09/21 07:44:24;;;;;;;3.95;1.63;;;;;;;19.02;62.53;99671.13;5063011;28;20053;-69
2023/09/21 07:46:52;;;;;;;2.03;1.40;;;;;;;19.06;62.48;99674.84;5089753;27;20045;-69
2023/09/21 07:49:20;;;;;;;2.25;1.48;;;;;;;18.99;62.51;99671.72;5055796;27;20140;-69
2023/09/21 07:51:49;;;;;;;3.42;2.03;;;;;;;19.07;62.74;99683.78;5060624;28;20080;-69
2023/09/21 07:54:17;;;;;;;3.00;1.95;;;;;;;19.06;62.78;99688.47;5053671;28;20185;-69
2023/09/21 07:56:46;;;;;;;4.10;1.90;;;;;;;19.06;62.69;99680.28;5061784;28;20386;-70
2023/09/21 07:59:15;;;;;;;5.18;2.33;;;;;;;19.07;62.91;99678.34;5056778;28;20045;-67
2023/09/21 08:01:46;;;;;;;3.22;1.98;;;;;;;19.07;62.90;99681.06;5059544;27;20069;-70
2023/09/21 08:04:14;;;;;;;2.40;1.60;;;;;;;19.06;63.16;99688.47;5061749;28;20053;-72
2023/09/21 08:06:42;;;;;;;4.90;2.13;;;;;;;19.06;62.85;99691.19;5061655;27;20514;-67
2023/09/21 08:09:10;;;;;;;3.83;2.10;;;;;;;19.05;63.13;99696.94;5062095;28;20051;-66
2023/09/21 08:11:56;;;;;;;;;;;;;;;19.05;63.25;99696.94;5071102;27;20064;-66
2023/09/21 08:14:25;;;;;;;3.15;1.67;;;;;;;19.06;63.32;99698.53;5060408;28;20281;-66
2023/09/21 08:16:55;;;;;;;3.90;1.75;;;;;;;19.05;63.47;99705.09;5061881;27;20113;-66
2023/09/21 08:19:23;;;;;;;3.80;1.77;;;;;;;19.05;63.48;99707.81;5064212;27;20041;-68
2023/09/21 08:21:51;;;;;;;3.97;1.52;;;;;;;19.04;63.55;99712.47;5058349;28;20049;-66
2023/09/21 08:24:19;;;;;;;4.10;2.15;;;;;;;19.05;63.56;99724.97;5061069;27;20144;-66
2023/09/21 08:26:47;;;;;;;3.05;1.88;;;;;;;19.06;64.09;99726.59;5061088;28;20052;-66
2023/09/21 08:29:15;;;;;;;3.90;1.67;;;;;;;19.14;63.72;99725.03;5064120;27;20172;-66
2023/09/21 08:31:43;;;;;;;9.95;2.25;;;;;;;19.14;63.86;99735.94;5079784;27;20045;-67
2023/09/21 08:34:12;;;;;;;3.00;1.80;;;;;;;19.10;63.79;99737.66;5078046;27;20039;-66
2023/09/21 08:36:44;;;;;;;5.25;2.22;;;;;;;19.07;63.97;99736.34;5057295;28;20129;-67
2023/09/21 08:39:12;;;;;;;2.67;1.50;;;;;;;19.05;64.27;99740.50;5072176;27;20093;-68
2023/09/21 08:41:43;;;;;;;2.72;1.80;;;;;;;19.01;64.39;99743.03;5060007;28;20091;-69
2023/09/21 08:44:12;;;;;;;3.03;1.85;;;;;;;19.04;64.61;99747.06;5068622;27;20202;-68
2023/09/21 08:46:41;;;;;;;4.40;1.90;;;;;;;18.98;64.78;99748.28;5062825;27;20163;-68
2023/09/21 08:49:10;;;;;;;2.90;1.90;;;;;;;19.01;64.69;99753.94;5072279;27;20112;-68
2023/09/21 08:51:41;;;;;;;3.45;1.95;;;;;;;19.01;64.72;99751.19;5065245;27;20074;-68
2023/09/21 08:54:11;;;;;;;3.67;1.92;;;;;;;19.01;64.73;99747.69;5066292;27;20049;-68
2023/09/21 08:56:42;;;;;;;5.20;2.03;;;;;;;19.00;64.79;99749.59;5057527;28;20055;-68
2023/09/21 08:59:10;;;;;;;4.82;1.90;;;;;;;18.96;65.23;99743.13;5056864;28;20467;-69
2023/09/21 09:01:38;;;;;;;5.68;2.00;;;;;;;19.00;65.19;99752.31;5058679;27;20101;-68
2023/09/21 09:04:07;;;;;;;4.10;2.30;;;;;;;18.99;65.02;99745.25;5060497;27;20041;-68
2023/09/21 09:06:35;;;;;;;4.45;2.08;;;;;;;19.00;65.37;99738.69;5053984;28;20056;-68
2023/09/21 09:09:05;;;;;;;3.47;1.70;;;;;;;18.95;64.89;99752.41;5060102;28;20048;-68
2023/09/21 09:11:35;;;;;;;5.68;1.70;;;;;;;18.99;65.06;99760.78;5059766;27;20059;-68
2023/09/21 09:14:03;;;;;;;2.90;1.80;;;;;;;18.99;65.06;99764.31;5062765;27;20045;-68
2023/09/21 09:16:33;;;;;;;6.28;1.85;;;;;;;18.99;65.20;99750.69;5057245;28;20128;-68
2023/09/21 09:19:05;;;;;;;6.20;1.73;;;;;;;19.00;65.18;99756.97;5068687;27;20058;-68
2023/09/21 09:21:33;;;;;;;4.75;2.10;;;;;;;19.00;65.69;99752.31;5056961;28;20061;-68
2023/09/21 09:24:02;;;;;;;2.42;1.75;;;;;;;18.98;66.87;99740.91;5060005;28;20053;-67
2023/09/21 09:26:32;;;;;;;5.13;1.95;;;;;;;19.01;66.29;99739.50;5060553;27;20052;-69
2023/09/21 09:29:06;;;;;;;5.85;1.80;;;;;;;18.98;66.11;99734.66;5065384;27;20109;-67
2023/09/21 09:31:35;;;;;;;3.95;1.70;;;;;;;18.99;66.10;99742.53;5065082;27;20045;-70
2023/09/21 09:34:04;;;;;;;4.07;2.00;;;;;;;19.00;66.09;99732.44;5065119;27;20077;-73
2023/09/21 09:36:33;;;;;;;3.50;1.80;;;;;;;18.93;65.93;99727.41;5054773;27;20056;-69
2023/09/21 09:39:02;;;;;;;5.03;1.98;;;;;;;18.99;65.87;99739.00;5059072;28;20049;-70
2023/09/21 09:41:32;;;;;;;8.77;1.90;;;;;;;19.00;65.82;99730.53;5056878;28;20283;-68
2023/09/21 09:44:05;;;;;;;3.75;1.92;;;;;;;18.96;65.69;99728.72;5062569;27;20057;-68
2023/09/21 09:46:35;;;;;;;3.22;1.75;;;;;;;19.00;65.86;99732.44;5055012;27;20055;-65
2023/09/21 09:49:04;;;;;;;3.58;1.80;;;;;;;19.01;65.77;99734.88;5069624;27;20090;-66
2023/09/21 09:51:40;;;;;;;3.22;1.98;;;;;;;19.01;65.90;99740.31;5049664;27;20076;-66
2023/09/21 09:54:10;;;;;;;3.97;2.13;;;;;;;19.02;65.93;99730.22;5059651;28;20055;-66
2023/09/21 09:56:41;;;;;;;4.38;1.90;;;;;;;19.01;65.84;99723.97;5059084;28;20048;-66
2023/09/21 09:59:11;;;;;;;2.22;1.50;;;;;;;19.00;65.96;99725.09;5058832;27;20174;-66
2023/09/21 10:01:41;;;;;;;3.90;1.60;;;;;;;19.03;65.73;99726.38;5059163;28;20053;-66
2023/09/21 10:04:09;;;;;;;2.45;1.52;;;;;;;19.03;65.63;99726.38;5061998;27;20041;-65
2023/09/21 10:06:41;;;;;;;5.13;2.35;;;;;;;19.03;65.82;99712.78;5058885;28;20057;-66
2023/09/21 10:09:11;;;;;;;2.97;1.67;;;;;;;19.03;65.84;99719.03;5060849;28;20436;-66
2023/09/21 10:11:44;;;;;;;1.75;1.33;;;;;;;19.04;65.68;99720.63;5079715;27;20047;-66
2023/09/21 10:14:13;;;;;;;4.65;1.90;;;;;;;19.05;65.87;99710.56;5080521;28;20057;-66
2023/09/21 10:16:49;;;;;;;2.40;1.83;;;;;;;19.05;65.57;99714.09;5059401;27;20049;-65
2023/09/21 10:19:17;;;;;;;3.90;1.73;;;;;;;19.05;65.63;99711.34;5053324;27;20101;-66
2023/09/21 10:21:47;;;;;;;3.65;1.70;;;;;;;19.07;65.66;99716.47;5061752;27;20063;-66
2023/09/21 10:24:18;;;;;;;2.35;1.75;;;;;;;19.07;65.68;99711.03;5060339;28;20044;-66
2023/09/21 10:26:50;;;;;;;3.63;1.55;;;;;;;19.06;65.42;99715.69;5060007;28;20095;-66
2023/09/21 10:29:20;;;;;;;3.42;1.40;;;;;;;19.08;65.72;99716.16;5066301;27;20068;-66
2023/09/21 10:31:55;;;;;;;3.30;1.70;;;;;;;19.09;65.78;99715.06;5059759;28;20084;-65
2023/09/21 10:34:25;;;;;;;1.70;1.23;;;;;;;19.08;65.49;99718.09;5058576;28;20057;-65
2023/09/21 10:37:05;;;;;;;4.43;1.90;;;;;;;19.08;65.58;99708.00;5056291;28;20075;-65
2023/09/21 10:39:33;;;;;;;4.43;1.48;;;;;;;19.09;65.79;99708.81;5054496;28;20056;-65
2023/09/21 10:42:33;;;;;;;4.07;1.95;;;;;;;19.09;65.93;99708.81;5063190;28;20051;-65
2023/09/21 10:45:07;;;;;;;3.40;1.65;;;;;;;19.10;65.98;99704.97;5063297;28;20044;-65
2023/09/21 10:47:40;;;;;;;3.35;1.58;;;;;;;19.09;66.11;99703.34;5063239;27;20557;-65
2023/09/21 10:50:11;;;;;;;4.22;2.00;;;;;;;19.09;66.14;99698.72;5059487;27;20050;-64
2023/09/21 10:52:41;;;;;;;3.38;1.70;;;;;;;19.11;66.15;99692.97;5107780;27;20060;-65
2023/09/21 10:55:12;;;;;;;1.70;1.40;;;;;;;19.10;66.00;99681.25;4761515;27;10000173;-64
2023/09/21 10:57:43;;;;;;;2.58;1.50;;;;;;;19.11;65.88;99682.88;5068231;27;20121;-64
2023/09/21 11:00:18;;;;;;;4.20;1.83;;;;;;;19.11;65.85;99677.41;5104425;27;20049;-65
2023/09/21 11:02:49;;;;;;;2.47;1.58;;;;;;;19.01;65.96;99653.16;5080048;27;20060;-64
2023/09/21 11:05:19;;;;;;;5.78;1.77;;;;;;;19.11;65.82;99666.53;5071011;27;20067;-65
2023/09/21 11:07:50;;;;;;;2.90;1.63;;;;;;;19.11;65.82;99650.19;5110425;27;20489;-64
2023/09/21 11:10:19;;;;;;;1.85;1.30;;;;;;;19.12;65.84;99659.97;5111313;27;20505;-65
2023/09/21 11:12:48;;;;;;;3.00;1.55;;;;;;;19.09;66.10;99649.69;5085121;27;20049;-65
2023/09/21 11:15:17;;;;;;;4.03;1.50;;;;;;;19.14;66.00;99654.22;5090137;27;20080;-64
2023/09/21 11:17:47;;;;;;;4.10;1.88;;;;;;;19.15;65.98;99650.38;5108609;27;20051;-65
2023/09/21 11:20:19;;;;;;;1.95;1.42;;;;;;;19.14;65.83;99646.84;5117527;27;20589;-65
2023/09/21 11:22:50;;;;;;;1.98;1.38;;;;;;;19.25;66.13;99644.69;5090133;27;20058;-65
2023/09/21 11:25:20;;;;;;;2.65;1.30;;;;;;;19.20;66.01;99636.63;5080769;27;20060;-65
2023/09/21 11:27:50;;;;;;;5.50;1.63;;;;;;;19.20;66.09;99644.81;5111699;27;20487;-64
2023/09/21 11:30:19;;;;;;;4.28;1.80;;;;;;;19.24;66.35;99645.81;5074080;27;20099;-67
2023/09/21 11:32:48;;;;;;;4.53;1.63;;;;;;;19.22;65.86;99645.31;5088552;27;20082;-65
2023/09/21 11:35:21;;;;;;;2.20;1.55;;;;;;;19.21;66.12;99643.69;5110950;27;20175;-65
2023/09/21 11:37:50;;;;;;;4.80;1.67;;;;;;;19.22;66.24;99650.75;5089564;27;20070;-66
2023/09/21 11:40:21;;;;;;;4.30;1.75;;;;;;;19.22;66.89;99644.50;5065205;27;20053;-67
2023/09/21 11:42:57;;;;;;;2.17;1.50;;;;;;;19.20;66.64;99642.09;5067058;27;20040;-67
2023/09/21 11:45:27;;;;;;;2.08;1.38;;;;;;;19.20;66.75;99647.53;5071243;27;20133;-67